KBID

Details ICAO KBID (BID)
Name Block Island State
Region United States
Timezone America/New_York (UTC-4.0)
Plans Departing 15
Arriving 23
Stats Elevation 108 ft / 33 m (AMSL)
Location 41.168139° -71.577612°
Runways 1
Magnetic Variation 14.115° W
Sunrise 2018-05-20 09:25:02 UTC / 2018-05-20 05:25:02 Local
Sunset 2018-05-21 00:03:31 UTC / 2018-05-20 20:03:31 Local
Advertisement - Login to hide

Runways

ID Width Length Bearing (true) Bearing (mag) Surface Threshold Offset Overrun Length
10 98 ft / 30 m 2,504 ft / 763 m 83.74° 97.85° Asphalt 0 ft / 0 m 0 ft / 0 m
28 98 ft / 30 m 2,504 ft / 763 m 263.75° 277.86° Asphalt 0 ft / 0 m 0 ft / 0 m

Map

Weather


0- 5 10 15 20 25 30 35+ Temperature / ° C

Clouds and Precipitation
Forecast for 2018-05-20 18:00 UTC. Updated 2 hours ago

Ground ~20,000 ft ~40,000 ft Winds

METAR

KBID 201906Z AUTO 23018G24KT 3/4SM -RA BR OVC002 14/13 A2992 RMK AO2 VIS 1/2V1 1/2 P0000

TAF

Not found

Frequencies

Recorded 134.78 MHz AWOS-3
Unicom 123.00 MHz CTAF/Unicom
Warning: Do not use this data for real-world aviation or navigation. No guarantee of current accuracy is given.